createdAt,value
2023-05-01T00:01:19.052Z,69.84
2023-05-01T00:03:45.951Z,70.67
2023-05-01T00:06:12.667Z,70.27
2023-05-01T00:08:41.908Z,69.53
2023-05-01T00:11:12.517Z,69.54
2023-05-01T00:13:38.981Z,70.03
2023-05-01T00:16:09.957Z,70.93
2023-05-01T00:18:36.660Z,70.85
2023-05-01T00:21:03.265Z,71.43
2023-05-01T00:23:29.700Z,71.71
2023-05-01T00:25:56.319Z,71.41
2023-05-01T00:28:22.806Z,72.02
2023-05-01T00:30:49.323Z,72.43
2023-05-01T00:33:16.240Z,72.34
2023-05-01T00:35:46.619Z,73.34
2023-05-01T00:38:13.128Z,72.91
2023-05-01T00:40:43.794Z,73.31
2023-05-01T00:43:11.901Z,73.57
2023-05-01T00:45:39.906Z,73.41
2023-05-01T00:48:06.686Z,72.77
2023-05-01T00:50:33.210Z,72.85
2023-05-01T00:53:00.325Z,73.37
2023-05-01T00:55:26.851Z,72.63
2023-05-01T00:57:55.192Z,71.39
2023-05-01T01:00:24.518Z,70.96
2023-05-01T01:02:52.091Z,71.08
2023-05-01T01:05:21.808Z,72.21
2023-05-01T01:07:59.137Z,71.75
2023-05-01T01:10:34.542Z,72.13
2023-05-01T01:13:06.891Z,71.74
2023-05-01T01:15:45.909Z,72.13
2023-05-01T01:18:33.015Z,71.63
2023-05-01T01:21:17.770Z,72.74
2023-05-01T01:24:23.575Z,72.07
2023-05-01T01:27:27.778Z,71.19
2023-05-01T01:30:33.435Z,72.84
2023-05-01T01:33:25.024Z,73.56
2023-05-01T01:35:57.665Z,73.11
2023-05-01T01:38:43.640Z,72.97
2023-05-01T01:41:14.710Z,73.29
2023-05-01T01:43:46.225Z,74.30
2023-05-01T01:46:12.858Z,73.38
2023-05-01T01:48:44.317Z,73.25
2023-05-01T01:51:14.931Z,73.31
2023-05-01T01:53:46.087Z,73.38
2023-05-01T01:56:14.780Z,73.14
2023-05-01T01:58:42.396Z,72.98
2023-05-01T02:01:09.659Z,73.92
2023-05-01T02:03:38.674Z,72.94
2023-05-01T02:06:08.152Z,73.99
2023-05-01T02:08:36.994Z,74.77
2023-05-01T02:11:05.059Z,75.87
2023-05-01T02:13:33.967Z,76.24
2023-05-01T02:16:02.091Z,75.34
2023-05-01T02:18:29.385Z,75.30
2023-05-01T02:20:57.335Z,74.49
2023-05-01T02:23:25.271Z,74.45
2023-05-01T02:25:53.517Z,75.15
2023-05-01T02:28:24.771Z,75.42
2023-05-01T02:30:52.549Z,75.39
2023-05-01T02:33:18.911Z,76.10
2023-05-01T02:35:47.401Z,75.58
2023-05-01T02:38:15.089Z,75.05
2023-05-01T02:40:45.467Z,75.75
2023-05-01T02:43:16.225Z,76.26
2023-05-01T02:45:44.812Z,75.31
2023-05-01T02:48:15.700Z,75.34
2023-05-01T02:50:44.135Z,76.94
2023-05-01T02:53:13.235Z,76.74
2023-05-01T02:55:42.969Z,76.23
2023-05-01T02:58:15.094Z,75.30
2023-05-01T03:00:41.854Z,75.08
2023-05-01T03:03:08.523Z,76.34
2023-05-01T03:05:34.930Z,76.33
2023-05-01T03:08:01.391Z,77.71
2023-05-01T03:10:27.775Z,76.46
2023-05-01T03:12:54.208Z,77.33
2023-05-01T03:15:20.587Z,77.98
2023-05-01T03:17:47.351Z,78.19
2023-05-01T03:20:13.820Z,78.22
2023-05-01T03:22:40.291Z,77.40
2023-05-01T03:25:07.052Z,77.51
2023-05-01T03:27:33.537Z,77.76
2023-05-01T03:29:59.890Z,76.66
2023-05-01T03:32:28.324Z,76.64
2023-05-01T03:34:54.828Z,77.74
2023-05-01T03:37:21.362Z,78.04
2023-05-01T03:39:47.864Z,78.73
2023-05-01T03:42:14.324Z,78.74
2023-05-01T03:44:40.773Z,78.74
2023-05-01T03:47:07.367Z,79.42
2023-05-01T03:49:33.729Z,80.71
2023-05-01T03:52:00.199Z,79.64
2023-05-01T03:54:26.843Z,79.08
2023-05-01T03:56:53.327Z,79.31
2023-05-01T03:59:19.728Z,79.06
2023-05-01T04:01:46.272Z,78.21
2023-05-01T04:04:13.921Z,77.41
2023-05-01T04:06:40.600Z,76.90
2023-05-01T04:09:07.076Z,76.68
2023-05-01T04:11:33.462Z,78.11
2023-05-01T04:13:59.791Z,77.94
2023-05-01T04:16:26.434Z,78.85
2023-05-01T04:18:52.940Z,77.30
2023-05-01T04:21:19.386Z,77.40
2023-05-01T04:23:45.828Z,76.62
2023-05-01T04:26:12.248Z,76.80
2023-05-01T04:28:38.672Z,76.77
2023-05-01T04:31:05.082Z,77.36
2023-05-01T04:33:31.531Z,77.41
2023-05-01T04:35:57.921Z,77.03
2023-05-01T04:38:24.277Z,76.78
2023-05-01T04:40:51.063Z,76.87
2023-05-01T04:43:17.610Z,76.67
2023-05-01T04:45:44.107Z,76.85
2023-05-01T04:48:10.708Z,78.22
2023-05-01T04:50:37.666Z,79.09
2023-05-01T04:53:04.129Z,78.80
2023-05-01T04:55:31.273Z,78.24
2023-05-01T04:57:57.858Z,78.00
2023-05-01T05:00:24.304Z,76.98
2023-05-01T05:02:50.850Z,76.48
2023-05-01T05:05:17.308Z,75.50
2023-05-01T05:07:43.887Z,74.97
2023-05-01T05:10:10.465Z,76.14
2023-05-01T05:12:36.802Z,75.72
2023-05-01T05:15:03.305Z,75.69
2023-05-01T05:17:29.740Z,74.93
2023-05-01T05:19:56.294Z,75.58
2023-05-01T05:22:23.664Z,75.47
2023-05-01T05:24:55.715Z,74.45
2023-05-01T05:27:22.222Z,74.33
2023-05-01T05:29:48.627Z,74.04
2023-05-01T05:32:15.186Z,74.50
2023-05-01T05:34:41.617Z,73.48
2023-05-01T05:37:08.602Z,73.95
2023-05-01T05:39:35.076Z,73.25
2023-05-01T05:42:01.522Z,72.77
2023-05-01T05:44:27.955Z,72.31
2023-05-01T05:46:54.513Z,72.35
2023-05-01T05:49:20.916Z,73.02
2023-05-01T05:51:47.328Z,72.11
2023-05-01T05:54:13.811Z,72.58
2023-05-01T05:56:40.359Z,72.09
2023-05-01T05:59:06.836Z,71.56
2023-05-01T06:01:33.677Z,71.13
2023-05-01T06:04:00.062Z,72.04
2023-05-01T06:06:27.586Z,72.13
2023-05-01T06:08:53.987Z,71.83
2023-05-01T06:11:21.848Z,70.10
2023-05-01T06:13:48.286Z,70.61
2023-05-01T06:16:15.245Z,69.79
2023-05-01T06:18:43.355Z,69.85
2023-05-01T06:21:11.037Z,69.48
2023-05-01T06:23:37.430Z,69.61
2023-05-01T06:26:03.911Z,68.55
2023-05-01T06:28:30.499Z,68.62
2023-05-01T06:30:56.898Z,68.14
2023-05-01T06:33:23.458Z,68.28
2023-05-01T06:35:49.894Z,68.19
2023-05-01T06:38:16.577Z,67.86
2023-05-01T06:40:43.007Z,66.89
2023-05-01T06:43:09.458Z,67.29
2023-05-01T06:45:36.138Z,66.75
2023-05-01T06:48:02.717Z,67.46
2023-05-01T06:50:29.141Z,67.68
2023-05-01T06:52:55.717Z,66.89
2023-05-01T06:55:22.251Z,66.35
2023-05-01T06:57:48.643Z,66.53
2023-05-01T07:00:16.691Z,65.73
2023-05-01T07:02:45.300Z,66.19
2023-05-01T07:05:12.330Z,65.60
2023-05-01T07:07:42.299Z,65.58
2023-05-01T07:10:14.045Z,65.21
2023-05-01T07:12:40.509Z,66.00
2023-05-01T07:15:07.971Z,66.15
2023-05-01T07:17:34.653Z,65.03
2023-05-01T07:20:01.375Z,65.43
2023-05-01T07:22:29.155Z,64.63
2023-05-01T07:24:55.598Z,65.73
2023-05-01T07:27:22.123Z,65.94
2023-05-01T07:29:50.475Z,65.74
2023-05-01T07:32:16.993Z,65.47
2023-05-01T07:34:43.438Z,65.17
2023-05-01T07:37:09.946Z,65.29
2023-05-01T07:39:36.384Z,65.40
2023-05-01T07:42:02.905Z,65.08
2023-05-01T07:44:29.284Z,64.58
2023-05-01T07:46:55.807Z,64.17
2023-05-01T07:49:22.521Z,63.92
2023-05-01T07:51:49.658Z,64.76
2023-05-01T07:54:17.070Z,63.20
2023-05-01T07:56:43.653Z,64.06
2023-05-01T07:59:10.163Z,63.24
2023-05-01T08:01:37.033Z,63.39
2023-05-01T08:04:03.788Z,63.95
2023-05-01T08:06:31.798Z,63.60
2023-05-01T08:08:58.291Z,63.58
2023-05-01T08:11:25.946Z,63.27
2023-05-01T08:13:52.587Z,63.95
2023-05-01T08:16:21.776Z,63.41
2023-05-01T08:18:48.680Z,63.89
2023-05-01T08:21:15.032Z,64.50
2023-05-01T08:23:41.498Z,64.42
2023-05-01T08:26:08.000Z,63.97
2023-05-01T08:28:35.707Z,63.10
2023-05-01T08:31:03.728Z,63.30
2023-05-01T08:33:30.322Z,63.67
2023-05-01T08:35:56.986Z,63.18
2023-05-01T08:38:24.003Z,62.84
2023-05-01T08:40:54.408Z,63.13
2023-05-01T08:43:21.349Z,62.87
2023-05-01T08:45:48.812Z,62.86
2023-05-01T08:48:18.581Z,62.02
2023-05-01T08:50:46.946Z,62.40
2023-05-01T08:53:17.052Z,62.03
2023-05-01T08:55:47.780Z,61.42
2023-05-01T08:58:15.128Z,63.10
2023-05-01T09:00:42.787Z,62.08
2023-05-01T09:03:12.282Z,61.73
2023-05-01T09:05:39.114Z,61.30
2023-05-01T09:08:05.636Z,61.16
2023-05-01T09:10:33.525Z,61.15
2023-05-01T09:13:06.967Z,61.20
2023-05-01T09:15:33.874Z,60.50
2023-05-01T09:18:03.472Z,59.69
2023-05-01T09:20:31.679Z,59.56
2023-05-01T09:22:59.236Z,59.54
2023-05-01T09:25:25.683Z,60.08
2023-05-01T09:27:52.239Z,58.84
2023-05-01T09:30:38.719Z,59.07
2023-05-01T09:33:15.097Z,58.90
2023-05-01T09:35:56.014Z,57.99
2023-05-01T09:38:27.602Z,58.08
2023-05-01T09:40:56.890Z,58.04
2023-05-01T09:43:30.669Z,57.41
2023-05-01T09:46:09.518Z,55.65
2023-05-01T09:48:37.381Z,55.07
2023-05-01T09:51:36.759Z,55.09
2023-05-01T09:54:04.960Z,53.80
2023-05-01T09:56:33.934Z,53.52
2023-05-01T09:59:15.931Z,52.63
2023-05-01T10:01:44.997Z,53.02
2023-05-01T10:04:12.474Z,52.09
2023-05-01T10:06:40.020Z,53.72
2023-05-01T10:09:10.810Z,53.12
2023-05-01T10:11:55.991Z,52.45
2023-05-01T10:14:24.072Z,52.00
2023-05-01T10:16:52.920Z,50.68
2023-05-01T10:19:20.239Z,51.22
2023-05-01T10:21:47.061Z,51.03
2023-05-01T10:24:15.182Z,51.21
2023-05-01T10:26:43.044Z,50.21
2023-05-01T10:29:09.446Z,50.45
2023-05-01T10:31:36.101Z,49.23
2023-05-01T10:34:03.733Z,48.70
2023-05-01T10:36:45.968Z,49.91
2023-05-01T10:39:34.099Z,49.71
2023-05-01T10:42:08.574Z,49.76
2023-05-01T10:44:35.228Z,50.39
2023-05-01T10:47:42.713Z,49.45
2023-05-01T10:50:17.977Z,47.30
2023-05-01T10:53:12.352Z,48.73
2023-05-01T10:55:42.942Z,48.57
2023-05-01T10:58:10.201Z,48.28
2023-05-01T11:00:36.924Z,48.70
2023-05-01T11:03:21.625Z,47.93
2023-05-01T11:06:00.952Z,46.87
2023-05-01T11:08:34.158Z,47.66
2023-05-01T11:11:25.588Z,45.71
2023-05-01T11:14:05.696Z,45.45
2023-05-01T11:16:39.392Z,44.84
2023-05-01T11:19:06.428Z,46.52
2023-05-01T11:21:34.759Z,46.49
2023-05-01T11:24:01.549Z,45.80
2023-05-01T11:26:30.146Z,47.23
2023-05-01T11:29:01.713Z,47.27
2023-05-01T11:31:29.127Z,46.52
2023-05-01T11:34:00.227Z,46.97
2023-05-01T11:36:28.208Z,46.45
2023-05-01T11:38:59.725Z,47.54
2023-05-01T11:41:27.003Z,45.59
2023-05-01T11:43:59.742Z,45.41
2023-05-01T11:46:31.358Z,45.11
2023-05-01T11:48:59.577Z,46.83
2023-05-01T11:51:26.729Z,44.13
2023-05-01T11:54:06.300Z,45.46
2023-05-01T11:56:34.147Z,45.12
2023-05-01T11:59:12.438Z,44.42
2023-05-01T12:01:44.566Z,44.03
2023-05-01T12:04:12.460Z,45.73
2023-05-01T12:06:44.907Z,44.21
2023-05-01T12:09:17.185Z,42.83
2023-05-01T12:11:44.780Z,43.43
2023-05-01T12:14:12.427Z,45.06
2023-05-01T12:16:40.570Z,44.66
2023-05-01T12:19:07.573Z,45.41
2023-05-01T12:21:35.169Z,45.16
2023-05-01T12:24:16.283Z,45.37
2023-05-01T12:26:44.097Z,44.87
2023-05-01T12:29:11.242Z,46.19
2023-05-01T12:31:46.348Z,47.94
2023-05-01T12:34:12.909Z,48.22
2023-05-01T12:36:40.477Z,48.31
2023-05-01T12:39:14.593Z,50.53
2023-05-01T12:41:43.811Z,48.13
2023-05-01T12:44:24.505Z,50.23
2023-05-01T12:47:02.320Z,50.04
2023-05-01T12:49:30.507Z,49.33
2023-05-01T12:51:59.709Z,48.78
2023-05-01T12:54:33.412Z,49.52
2023-05-01T12:57:14.625Z,50.79
2023-05-01T12:59:42.935Z,49.07
2023-05-01T13:02:12.563Z,49.87
2023-05-01T13:04:47.016Z,50.40
2023-05-01T13:07:19.284Z,51.34
2023-05-01T13:09:58.311Z,50.86
2023-05-01T13:12:26.560Z,52.51
2023-05-01T13:14:53.712Z,52.28
2023-05-01T13:17:23.272Z,52.30
2023-05-01T13:20:00.113Z,52.68
2023-05-01T13:22:34.795Z,52.76
2023-05-01T13:25:14.285Z,53.57
2023-05-01T13:27:41.630Z,55.26
2023-05-01T13:30:10.649Z,55.58
2023-05-01T13:32:41.337Z,56.10
2023-05-01T13:35:08.461Z,53.01
2023-05-01T13:37:39.957Z,53.93
2023-05-01T13:40:07.027Z,54.27
2023-05-01T13:42:33.503Z,55.17
2023-05-01T13:45:00.106Z,55.38
2023-05-01T13:47:27.340Z,54.72
2023-05-01T13:49:54.025Z,53.41
2023-05-01T13:52:21.066Z,53.82
2023-05-01T13:54:48.477Z,53.86
2023-05-01T13:57:16.153Z,53.29
2023-05-01T13:59:45.003Z,51.17
2023-05-01T14:02:27.126Z,52.90
2023-05-01T14:04:54.299Z,52.22
2023-05-01T14:07:22.594Z,52.66
2023-05-01T14:10:02.265Z,50.96
2023-05-01T14:12:30.806Z,50.57
2023-05-01T14:14:58.123Z,52.00
2023-05-01T14:17:33.031Z,52.24
2023-05-01T14:19:59.527Z,50.05
2023-05-01T14:22:29.945Z,50.86
2023-05-01T14:24:57.630Z,50.01
2023-05-01T14:27:24.321Z,51.40
2023-05-01T14:29:50.756Z,50.74
2023-05-01T14:32:17.234Z,48.46
2023-05-01T14:34:43.704Z,46.46
2023-05-01T14:37:10.749Z,46.05
2023-05-01T14:39:41.977Z,46.14
2023-05-01T14:42:08.436Z,43.95
2023-05-01T14:44:40.101Z,43.75
2023-05-01T14:47:09.381Z,44.15
2023-05-01T14:49:35.995Z,44.69
2023-05-01T14:52:03.363Z,43.28
2023-05-01T14:54:46.271Z,43.99
2023-05-01T14:57:13.054Z,42.96
2023-05-01T14:59:39.666Z,45.98
2023-05-01T15:02:06.192Z,47.08
2023-05-01T15:04:32.824Z,48.05
2023-05-01T15:06:59.547Z,48.09
2023-05-01T15:09:25.945Z,45.62
2023-05-01T15:11:52.358Z,47.22
2023-05-01T15:14:18.742Z,46.33
2023-05-01T15:16:45.172Z,49.71
2023-05-01T15:19:11.617Z,48.25
2023-05-01T15:21:38.171Z,48.51
2023-05-01T15:24:04.599Z,48.34
2023-05-01T15:26:31.706Z,47.34
2023-05-01T15:28:58.588Z,49.69
2023-05-01T15:31:24.981Z,48.61
2023-05-01T15:33:51.366Z,49.22
2023-05-01T15:36:18.176Z,47.79
2023-05-01T15:38:44.659Z,48.18
2023-05-01T15:41:11.115Z,48.08
2023-05-01T15:43:37.663Z,48.36
2023-05-01T15:46:06.028Z,49.04
2023-05-01T15:48:33.586Z,49.64
2023-05-01T15:51:00.067Z,50.81
2023-05-01T15:53:26.523Z,51.04
2023-05-01T15:55:57.584Z,50.66
2023-05-01T15:58:24.835Z,50.87
2023-05-01T16:00:52.068Z,50.78
2023-05-01T16:03:18.759Z,50.68
2023-05-01T16:05:47.023Z,49.58
2023-05-01T16:08:17.671Z,50.22
2023-05-01T16:10:44.208Z,50.33
2023-05-01T16:13:11.428Z,50.82
2023-05-01T16:15:40.634Z,50.46
2023-05-01T16:18:08.143Z,52.39
2023-05-01T16:20:41.313Z,53.65
2023-05-01T16:23:08.613Z,52.39
2023-05-01T16:25:35.076Z,53.57
2023-05-01T16:28:05.489Z,52.95
2023-05-01T16:30:31.898Z,52.77
2023-05-01T16:32:58.399Z,54.25
2023-05-01T16:35:27.439Z,52.87
2023-05-01T16:37:54.992Z,53.92
2023-05-01T16:40:22.152Z,54.95
2023-05-01T16:42:54.914Z,55.07
2023-05-01T16:45:21.874Z,55.64
2023-05-01T16:47:48.706Z,56.96
2023-05-01T16:50:16.533Z,58.00
2023-05-01T16:52:46.109Z,57.47
2023-05-01T16:55:13.088Z,58.58
2023-05-01T16:57:40.447Z,57.88
2023-05-01T17:00:09.373Z,58.02
2023-05-01T17:02:36.320Z,58.37
2023-05-01T17:05:02.914Z,58.46
2023-05-01T17:07:29.685Z,58.79
2023-05-01T17:09:56.330Z,59.46
2023-05-01T17:12:23.463Z,58.89
2023-05-01T17:14:50.157Z,58.35
2023-05-01T17:17:19.413Z,59.22
2023-05-01T17:19:45.867Z,59.57
2023-05-01T17:22:12.288Z,59.97
2023-05-01T17:24:38.793Z,60.54
2023-05-01T17:27:05.669Z,59.37
2023-05-01T17:29:32.144Z,59.84
2023-05-01T17:31:58.579Z,60.83
2023-05-01T17:34:25.022Z,61.10
2023-05-01T17:36:51.442Z,60.73
2023-05-01T17:39:18.741Z,60.32
2023-05-01T17:41:45.322Z,60.18
2023-05-01T17:44:11.742Z,61.34
2023-05-01T17:46:38.999Z,61.21
2023-05-01T17:49:06.162Z,61.15
2023-05-01T17:51:33.851Z,61.42
2023-05-01T17:54:21.874Z,61.52
2023-05-01T17:56:48.378Z,61.10
2023-05-01T17:59:14.925Z,61.47
2023-05-01T18:01:41.401Z,60.05
2023-05-01T18:04:09.123Z,61.12
2023-05-01T18:06:35.931Z,61.38
2023-05-01T18:09:03.464Z,60.80
2023-05-01T18:11:29.878Z,61.99
2023-05-01T18:13:56.467Z,61.81
2023-05-01T18:16:24.444Z,61.45
2023-05-01T18:18:51.004Z,61.49
2023-05-01T18:21:17.486Z,61.72
2023-05-01T18:23:44.533Z,62.01
2023-05-01T18:26:12.033Z,62.62
2023-05-01T18:28:38.764Z,62.90
2023-05-01T18:31:05.326Z,62.46
2023-05-01T18:33:31.996Z,63.23
2023-05-01T18:35:58.460Z,63.61
2023-05-01T18:38:26.336Z,63.84
2023-05-01T18:40:54.592Z,63.49
2023-05-01T18:43:21.255Z,63.43
2023-05-01T18:45:47.720Z,64.60
2023-05-01T18:48:14.236Z,64.60
2023-05-01T18:50:42.302Z,64.57
2023-05-01T18:53:08.796Z,65.20
2023-05-01T18:55:35.247Z,65.12
2023-05-01T18:58:01.981Z,65.95
2023-05-01T19:00:29.129Z,65.56
2023-05-01T19:02:55.733Z,66.77
2023-05-01T19:05:23.301Z,66.51
2023-05-01T19:07:49.836Z,66.29
2023-05-01T19:10:19.155Z,66.40
2023-05-01T19:12:45.685Z,66.86
2023-05-01T19:15:13.021Z,67.13
2023-05-01T19:17:39.607Z,67.25
2023-05-01T19:20:07.026Z,67.47
2023-05-01T19:22:33.545Z,68.01
2023-05-01T19:25:02.917Z,67.68
2023-05-01T19:27:29.382Z,67.15
2023-05-01T19:29:56.447Z,67.21
2023-05-01T19:32:23.299Z,67.78
2023-05-01T19:34:49.830Z,68.50
2023-05-01T19:37:16.326Z,68.54
2023-05-01T19:39:42.797Z,68.98
2023-05-01T19:42:09.582Z,69.96
2023-05-01T19:44:35.974Z,69.51
2023-05-01T19:47:02.531Z,68.83
2023-05-01T19:49:28.994Z,69.62
2023-05-01T19:51:57.458Z,69.74
2023-05-01T19:54:28.567Z,69.55
2023-05-01T19:56:56.219Z,69.46
2023-05-01T19:59:23.132Z,69.89
2023-05-01T20:01:49.953Z,70.20
2023-05-01T20:04:16.592Z,70.10
2023-05-01T20:06:45.896Z,70.60
2023-05-01T20:09:12.345Z,70.75
2023-05-01T20:11:38.703Z,70.06
2023-05-01T20:14:05.112Z,71.13
2023-05-01T20:16:31.691Z,70.83
2023-05-01T20:18:58.104Z,71.31
2023-05-01T20:21:24.708Z,71.50
2023-05-01T20:23:51.391Z,71.01
2023-05-01T20:26:18.979Z,71.10
2023-05-01T20:28:45.732Z,71.70
2023-05-01T20:31:13.333Z,72.20
2023-05-01T20:33:39.761Z,72.06
2023-05-01T20:36:07.087Z,72.62
2023-05-01T20:38:33.581Z,73.30
2023-05-01T20:41:00.114Z,73.25
2023-05-01T20:43:26.759Z,73.41
2023-05-01T20:45:53.218Z,72.88
2023-05-01T20:48:19.713Z,73.58
2023-05-01T20:50:48.148Z,72.68
2023-05-01T20:53:14.545Z,73.53
2023-05-01T20:55:41.005Z,74.04
2023-05-01T20:58:07.580Z,74.73
2023-05-01T21:00:33.985Z,74.70
2023-05-01T21:03:01.380Z,75.85
2023-05-01T21:05:27.944Z,75.21
2023-05-01T21:07:54.422Z,75.52
2023-05-01T21:10:21.080Z,75.38
2023-05-01T21:12:47.497Z,75.78
2023-05-01T21:15:13.976Z,76.06
2023-05-01T21:17:43.273Z,77.35
2023-05-01T21:20:16.808Z,76.78
2023-05-01T21:22:45.449Z,77.31
2023-05-01T21:25:14.483Z,77.50
2023-05-01T21:27:43.860Z,77.39
2023-05-01T21:30:17.652Z,77.19
2023-05-01T21:32:44.127Z,76.90
2023-05-01T21:35:11.447Z,77.13
2023-05-01T21:37:39.416Z,76.71
2023-05-01T21:40:06.515Z,76.67
2023-05-01T21:42:39.474Z,76.85
2023-05-01T21:45:10.625Z,76.10
2023-05-01T21:47:39.839Z,76.41
2023-05-01T21:50:18.044Z,75.67
2023-05-01T21:52:46.607Z,75.60
2023-05-01T21:55:21.337Z,75.54
2023-05-01T21:57:49.990Z,76.45
2023-05-01T22:00:17.906Z,76.35
2023-05-01T22:02:49.814Z,75.82
2023-05-01T22:05:18.818Z,76.30
2023-05-01T22:07:46.233Z,75.54
2023-05-01T22:10:17.924Z,76.97
2023-05-01T22:12:45.608Z,76.19
2023-05-01T22:15:13.544Z,76.06
2023-05-01T22:17:40.726Z,75.69
2023-05-01T22:20:09.018Z,75.98
2023-05-01T22:22:36.749Z,76.76
2023-05-01T22:25:03.909Z,76.65
2023-05-01T22:27:31.189Z,76.21
2023-05-01T22:29:58.032Z,75.70
2023-05-01T22:32:24.805Z,76.59
2023-05-01T22:34:51.256Z,76.35
2023-05-01T22:37:18.923Z,76.24
2023-05-01T22:39:45.547Z,76.25
2023-05-01T22:42:11.931Z,76.45
2023-05-01T22:44:38.571Z,76.65
2023-05-01T22:47:05.076Z,76.18
2023-05-01T22:49:32.670Z,76.53
2023-05-01T22:51:59.643Z,75.27
2023-05-01T22:54:26.085Z,75.92
2023-05-01T22:56:52.630Z,75.90
2023-05-01T22:59:19.498Z,76.48
2023-05-01T23:01:46.327Z,76.34
2023-05-01T23:04:13.831Z,75.66
2023-05-01T23:06:41.096Z,75.93
2023-05-01T23:09:07.608Z,77.25
2023-05-01T23:11:34.816Z,77.19
2023-05-01T23:14:01.374Z,75.54
2023-05-01T23:16:37.586Z,76.68
2023-05-01T23:19:04.554Z,77.01
2023-05-01T23:21:31.718Z,76.88
2023-05-01T23:23:58.112Z,77.53
2023-05-01T23:26:26.852Z,77.92
2023-05-01T23:28:53.620Z,78.57
2023-05-01T23:31:25.714Z,78.33
2023-05-01T23:33:53.332Z,78.49
2023-05-01T23:36:20.337Z,78.27
2023-05-01T23:38:47.526Z,78.14
2023-05-01T23:41:15.186Z,79.25
2023-05-01T23:43:42.036Z,78.46
2023-05-01T23:46:08.712Z,78.39
2023-05-01T23:48:35.848Z,78.66
2023-05-01T23:51:03.013Z,78.04
2023-05-01T23:53:29.436Z,78.23
2023-05-01T23:55:55.924Z,78.23
2023-05-01T23:58:23.034Z,77.26
